Time;durP1;ratioP1;P1;durP2;ratioP2;P2;SDS_P1;SDS_P2;PMS_P1;PMS_P2;Temp;Humidity;BMP_temperature;BMP_pressure;BME280_temperature;BME280_humidity;BME280_pressure;Samples;Min_cycle;Max_cycle;Signal;HPM_P1;HPM_P2
2021/12/26 00:00:53;;;;;;;20.50;5.62;;;;;;;11.89;46.23;99565.91;4412117;32;20093;-69
2021/12/26 00:03:21;;;;;;;20.62;6.28;;;;;;;11.73;46.76;99559.84;4415040;32;20084;-69
2021/12/26 00:05:47;;;;;;;15.80;5.78;;;;;;;11.67;46.85;99565.38;4416121;32;20355;-69
2021/12/26 00:08:13;;;;;;;16.15;6.20;;;;;;;11.49;47.29;99556.94;4415456;32;20068;-69
2021/12/26 00:10:38;;;;;;;16.48;6.10;;;;;;;11.41;47.47;99552.84;4414899;32;20053;-70
2021/12/26 00:13:04;;;;;;;14.85;6.25;;;;;;;11.53;47.52;99551.91;4415575;32;20034;-70
2021/12/26 00:15:31;;;;;;;21.35;6.37;;;;;;;11.43;47.59;99550.38;4417743;32;20707;-70
2021/12/26 00:17:57;;;;;;;18.73;5.95;;;;;;;11.53;47.67;99553.91;4413492;32;20714;-70
2021/12/26 00:20:23;;;;;;;20.37;7.50;;;;;;;11.47;47.21;99547.38;4414146;32;20073;-71
2021/12/26 00:22:49;;;;;;;16.95;6.93;;;;;;;11.27;47.96;99547.09;4417749;32;20041;-70
2021/12/26 00:25:15;;;;;;;23.25;7.10;;;;;;;11.46;47.47;99548.63;4416842;32;20034;-70
2021/12/26 00:27:41;;;;;;;17.20;7.37;;;;;;;11.57;47.34;99551.75;4410275;32;20111;-69
2021/12/26 00:30:12;;;;;;;16.73;6.87;;;;;;;11.52;47.72;99541.88;4414325;32;20081;-71
2021/12/26 00:32:38;;;;;;;20.90;6.82;;;;;;;11.59;47.72;99541.56;4414457;32;20153;-71
2021/12/26 00:35:05;;;;;;;18.10;6.85;;;;;;;11.59;47.79;99538.72;4418319;32;20477;-70
2021/12/26 00:37:31;;;;;;;16.87;6.95;;;;;;;11.28;48.04;99531.75;4415456;32;20075;-72
2021/12/26 00:39:57;;;;;;;18.48;6.87;;;;;;;11.24;48.15;99531.94;4417640;32;20041;-70
2021/12/26 00:42:23;;;;;;;15.05;7.00;;;;;;;11.55;47.84;99532.50;4413726;32;20085;-70
2021/12/26 00:44:48;;;;;;;18.65;7.47;;;;;;;11.58;47.89;99527.94;4416517;32;20049;-70
2021/12/26 00:47:14;;;;;;;18.73;7.40;;;;;;;11.44;48.24;99525.78;4415424;32;20085;-68
2021/12/26 00:49:40;;;;;;;15.68;6.65;;;;;;;11.32;48.12;99524.72;4417566;32;20255;-68
2021/12/26 00:52:07;;;;;;;18.25;6.65;;;;;;;11.42;47.95;99526.25;4413282;32;20074;-68
2021/12/26 00:54:34;;;;;;;17.37;6.85;;;;;;;11.58;47.77;99514.63;4416989;32;20064;-69
2021/12/26 00:57:00;;;;;;;14.77;6.03;;;;;;;11.66;47.84;99510.25;4415010;32;20046;-69
2021/12/26 00:59:26;;;;;;;15.52;7.15;;;;;;;11.35;48.04;99512.50;4416090;32;20076;-70
2021/12/26 01:01:54;;;;;;;26.67;8.13;;;;;;;11.38;47.82;99503.09;4415561;32;20418;-68
2021/12/26 01:04:20;;;;;;;18.92;7.68;;;;;;;11.37;48.03;99500.75;4415784;32;20041;-69
2021/12/26 01:06:45;;;;;;;18.55;7.57;;;;;;;11.02;49.01;99500.34;4415762;32;20088;-70
2021/12/26 01:09:16;;;;;;;14.60;6.93;;;;;;;11.22;48.67;99497.84;4415390;32;20077;-70
2021/12/26 01:11:48;;;;;;;12.75;7.18;;;;;;;11.17;48.99;99489.25;4415016;32;20382;-69
2021/12/26 01:14:17;;;;;;;15.80;7.47;;;;;;;11.42;48.34;99497.31;4417589;32;20063;-69
2021/12/26 01:16:44;;;;;;;15.98;7.87;;;;;;;11.47;48.68;99491.03;4414300;32;20046;-69
2021/12/26 01:19:15;;;;;;;17.73;7.72;;;;;;;11.38;48.76;99479.78;4412379;32;20110;-69
2021/12/26 01:21:43;;;;;;;16.85;6.80;;;;;;;11.39;48.70;99482.13;4411900;32;20467;-69
2021/12/26 01:24:12;;;;;;;19.23;7.18;;;;;;;11.69;48.54;99483.16;4416009;32;20286;-69
2021/12/26 01:26:38;;;;;;;18.45;7.32;;;;;;;11.30;49.17;99478.56;4412242;32;20108;-69
2021/12/26 01:29:05;;;;;;;16.50;6.82;;;;;;;11.44;48.61;99480.69;4413496;32;20526;-69
2021/12/26 01:31:32;;;;;;;16.73;7.30;;;;;;;11.57;48.98;99475.66;4413498;32;20050;-69
2021/12/26 01:34:03;;;;;;;12.57;6.80;;;;;;;11.45;48.93;99473.84;4418825;32;20108;-69
2021/12/26 01:36:31;;;;;;;16.83;7.47;;;;;;;11.92;48.15;99468.31;4418864;32;20293;-68
2021/12/26 01:38:58;;;;;;;13.20;6.82;;;;;;;12.01;48.16;99476.72;4418704;32;20081;-68
2021/12/26 01:41:26;;;;;;;15.73;7.28;;;;;;;11.72;48.41;99463.25;4416406;32;20061;-68
2021/12/26 01:43:57;;;;;;;14.30;7.20;;;;;;;11.99;48.51;99463.09;4418652;32;20475;-68
2021/12/26 01:46:25;;;;;;;14.68;7.47;;;;;;;11.98;48.50;99461.56;4417051;32;20150;-68
2021/12/26 01:51:47;;;;;;;11.50;6.30;;;;;;;12.54;47.62;99466.31;3979705;32;15021742;-68
2021/12/26 01:54:30;;;;;;;14.15;6.80;;;;;;;12.54;47.62;99466.31;4434270;32;20516;-68
2021/12/26 01:56:57;;;;;;;14.48;7.32;;;;;;;12.23;48.37;99457.47;4432586;32;20153;-69
2021/12/26 01:59:23;;;;;;;18.92;8.07;;;;;;;12.11;48.21;99458.50;4432018;32;20094;-70
2021/12/26 02:01:48;;;;;;;12.60;6.57;;;;;;;11.94;48.48;99449.66;4433520;32;20085;-70
2021/12/26 02:04:14;;;;;;;14.00;6.95;;;;;;;11.92;48.44;99448.59;4433568;32;20073;-70
2021/12/26 02:06:40;;;;;;;15.07;7.40;;;;;;;12.05;48.69;99454.75;4438690;32;20065;-70
2021/12/26 02:09:07;;;;;;;14.93;6.68;;;;;;;12.12;48.05;99464.91;4436216;32;20061;-70
2021/12/26 02:11:33;;;;;;;10.55;6.60;;;;;;;12.01;48.29;99459.81;4436076;32;20092;-70
2021/12/26 02:13:59;;;;;;;13.55;7.25;;;;;;;12.10;47.94;99460.50;4428429;32;20046;-70
2021/12/26 02:16:25;;;;;;;17.70;7.50;;;;;;;12.05;47.91;99452.72;4435991;32;20463;-70
2021/12/26 02:18:51;;;;;;;12.52;6.72;;;;;;;12.36;48.02;99460.81;4436484;32;20030;-69
2021/12/26 02:24:10;;;;;;;13.02;6.72;;;;;;;12.48;47.70;99462.59;3980727;32;15021941;-69
2021/12/26 02:29:24;;;;;;;13.10;7.28;;;;;;;12.34;48.19;99466.19;4435979;32;20140;-70
2021/12/26 02:31:50;;;;;;;11.65;6.30;;;;;;;12.44;47.92;99478.16;4433348;32;20432;-69
2021/12/26 02:34:16;;;;;;;18.70;9.07;;;;;;;12.15;48.05;99470.34;4435187;32;20068;-69
2021/12/26 02:36:42;;;;;;;14.57;6.15;;;;;;;11.90;48.34;99465.97;4437716;32;20379;-69
2021/12/26 02:39:09;;;;;;;12.65;6.28;;;;;;;11.79;48.47;99470.59;4435621;32;20403;-69
2021/12/26 02:41:34;;;;;;;7.37;5.28;;;;;;;11.66;48.62;99467.97;4434116;32;20600;-68
2021/12/26 02:44:00;;;;;;;9.73;5.85;;;;;;;11.72;48.65;99465.31;4429344;32;20110;-68
2021/12/26 02:46:27;;;;;;;9.43;5.30;;;;;;;11.83;48.68;99459.91;4429124;32;20064;-69
2021/12/26 02:48:53;;;;;;;9.27;5.03;;;;;;;11.88;48.86;99462.84;4432253;32;20741;-69
2021/12/26 02:51:19;;;;;;;11.00;5.47;;;;;;;12.12;48.68;99464.91;4433922;32;20103;-69
2021/12/26 02:53:47;;;;;;;7.78;5.03;;;;;;;12.08;48.78;99462.25;4431653;32;20042;-69
2021/12/26 02:56:13;;;;;;;9.50;5.00;;;;;;;12.44;48.19;99464.84;4435426;32;20081;-69
2021/12/26 02:58:38;;;;;;;8.02;5.15;;;;;;;12.33;48.56;99461.78;4433602;32;20377;-69
2021/12/26 03:01:10;;;;;;;7.32;4.97;;;;;;;12.19;48.68;99464.56;4432664;32;20465;-68
2021/12/26 03:03:36;;;;;;;7.35;4.97;;;;;;;12.41;48.39;99454.53;4435126;32;20257;-67
2021/12/26 03:06:09;;;;;;;7.97;4.62;;;;;;;12.33;48.30;99458.97;4432488;32;20140;-67
2021/12/26 03:08:34;;;;;;;7.35;4.93;;;;;;;12.58;48.15;99452.03;4433521;32;20103;-68
2021/12/26 03:11:00;;;;;;;8.35;4.82;;;;;;;12.42;48.38;99452.50;4430381;32;20069;-70
2021/12/26 03:13:28;;;;;;;6.57;4.80;;;;;;;12.37;48.68;99451.13;4426881;32;20103;-69
2021/12/26 03:15:54;;;;;;;8.25;4.62;;;;;;;12.51;48.04;99450.34;4434921;32;20081;-70
2021/12/26 03:18:19;;;;;;;6.82;4.62;;;;;;;12.42;48.21;99446.84;4432467;32;20346;-70
2021/12/26 03:20:48;;;;;;;10.60;5.40;;;;;;;12.35;48.43;99450.81;4434182;32;20072;-70
2021/12/26 03:23:17;;;;;;;6.30;4.57;;;;;;;12.67;48.44;99437.84;4436218;32;20111;-68
2021/12/26 03:25:45;;;;;;;10.80;5.22;;;;;;;12.77;48.22;99436.50;4434726;32;20045;-68
2021/12/26 03:28:11;;;;;;;7.35;4.93;;;;;;;12.66;48.16;99431.41;4432661;32;20073;-67
2021/12/26 03:30:39;;;;;;;10.85;5.57;;;;;;;12.68;48.29;99430.94;4434773;32;20081;-67
2021/12/26 03:33:07;;;;;;;6.97;5.47;;;;;;;12.75;48.06;99427.72;4432530;32;20033;-68
2021/12/26 03:35:34;;;;;;;7.18;4.80;;;;;;;12.83;48.24;99431.72;4417403;32;20270;-68
2021/12/26 03:38:03;;;;;;;7.22;5.07;;;;;;;12.78;48.19;99426.75;4421801;32;20106;-68
2021/12/26 03:40:30;;;;;;;11.85;6.65;;;;;;;12.85;48.22;99427.16;4418549;32;20073;-68
2021/12/26 03:42:55;;;;;;;6.47;5.22;;;;;;;12.76;48.10;99427.25;4425201;32;20466;-68
2021/12/26 03:45:22;;;;;;;6.70;4.93;;;;;;;12.73;48.20;99416.16;4421388;32;20073;-68
2021/12/26 03:47:50;;;;;;;7.78;5.30;;;;;;;12.82;48.03;99421.72;4417791;32;20081;-68
2021/12/26 03:50:19;;;;;;;11.02;6.12;;;;;;;12.79;47.72;99417.03;4421180;32;20095;-69
2021/12/26 03:52:46;;;;;;;12.30;5.95;;;;;;;12.97;47.64;99417.62;4421504;32;20026;-69
2021/12/26 03:55:12;;;;;;;10.70;6.15;;;;;;;12.90;48.12;99415.19;4420767;32;20063;-69
2021/12/26 03:57:38;;;;;;;8.50;5.70;;;;;;;12.84;48.18;99403.03;4422387;32;20087;-67
2021/12/26 04:00:07;;;;;;;8.85;6.07;;;;;;;12.78;48.13;99416.25;4421783;32;20853;-67
2021/12/26 04:02:33;;;;;;;8.27;5.68;;;;;;;13.05;47.84;99407.53;4420930;32;20411;-67
2021/12/26 04:04:58;;;;;;;10.25;6.28;;;;;;;12.86;47.96;99405.34;4422831;32;20077;-67
2021/12/26 04:07:24;;;;;;;8.60;5.87;;;;;;;12.82;48.09;99405.53;4424707;32;20120;-67
2021/12/26 04:09:50;;;;;;;9.07;5.82;;;;;;;12.62;47.91;99407.47;4417978;32;20056;-67
2021/12/26 04:12:15;;;;;;;8.38;5.80;;;;;;;12.84;47.80;99400.19;4423084;32;20089;-67
2021/12/26 04:14:42;;;;;;;10.88;5.53;;;;;;;12.83;47.91;99406.31;4423758;32;20069;-68
2021/12/26 04:17:08;;;;;;;8.02;6.07;;;;;;;12.84;48.03;99405.84;4422352;32;20065;-68
2021/12/26 04:19:34;;;;;;;8.43;5.43;;;;;;;12.71;47.90;99402.53;4423088;32;20576;-68
2021/12/26 04:22:08;;;;;;;11.15;6.40;;;;;;;12.69;47.50;99396.59;4423220;32;20076;-68
2021/12/26 04:24:34;;;;;;;11.05;5.90;;;;;;;12.79;47.84;99397.28;4426317;32;20038;-68
2021/12/26 04:27:00;;;;;;;8.80;5.68;;;;;;;12.81;47.72;99392.69;4424188;32;20030;-68
2021/12/26 04:29:25;;;;;;;12.63;5.78;;;;;;;12.75;47.96;99394.62;4421395;32;20064;-68
2021/12/26 04:31:51;;;;;;;8.00;5.72;;;;;;;12.82;47.86;99394.25;4417857;32;20108;-67
2021/12/26 04:34:17;;;;;;;9.70;5.55;;;;;;;12.62;47.98;99391.31;4420495;32;20080;-67
2021/12/26 04:36:43;;;;;;;10.23;6.12;;;;;;;12.75;48.16;99389.00;4420981;32;20505;-67
2021/12/26 04:39:09;;;;;;;8.18;6.20;;;;;;;12.75;48.29;99383.34;4421590;32;20125;-67
2021/12/26 04:41:34;;;;;;;9.70;6.45;;;;;;;12.68;47.98;99383.75;4423675;32;20077;-67
2021/12/26 04:44:00;;;;;;;11.25;6.55;;;;;;;12.77;48.11;99382.88;4422483;32;20069;-68
2021/12/26 04:46:26;;;;;;;11.43;6.40;;;;;;;12.85;48.25;99376.34;4420572;32;20391;-68
2021/12/26 04:48:52;;;;;;;10.75;6.55;;;;;;;12.83;48.36;99384.53;4416812;32;20081;-68
2021/12/26 04:51:18;;;;;;;8.63;6.35;;;;;;;12.98;48.05;99373.22;4418998;32;20115;-68
2021/12/26 04:53:44;;;;;;;8.88;6.22;;;;;;;12.91;48.05;99371.56;4425755;32;20025;-68
2021/12/26 04:56:10;;;;;;;9.02;6.00;;;;;;;12.89;48.05;99376.16;4424171;32;20049;-68
2021/12/26 04:58:36;;;;;;;9.80;6.50;;;;;;;12.87;48.00;99368.16;4420256;32;20060;-69
2021/12/26 05:01:04;;;;;;;8.32;5.47;;;;;;;12.96;48.09;99368.06;4423734;32;20105;-69
2021/12/26 05:03:30;;;;;;;8.82;5.93;;;;;;;13.10;48.29;99375.00;4418121;32;20037;-69
2021/12/26 05:05:56;;;;;;;10.27;5.70;;;;;;;13.00;48.21;99367.87;4420339;32;20064;-67
2021/12/26 05:08:21;;;;;;;9.80;5.62;;;;;;;13.05;48.13;99367.22;4415758;32;20427;-67
2021/12/26 05:10:47;;;;;;;10.43;6.18;;;;;;;12.89;48.05;99359.97;4422840;32;20339;-67
2021/12/26 05:13:13;;;;;;;9.25;5.78;;;;;;;12.97;48.13;99363.97;4417925;32;20069;-67
2021/12/26 05:15:39;;;;;;;9.50;6.43;;;;;;;12.94;48.08;99356.47;4422645;32;20053;-67
2021/12/26 05:18:05;;;;;;;9.60;5.95;;;;;;;12.87;48.28;99356.88;4424213;32;20108;-68
2021/12/26 05:20:31;;;;;;;9.38;6.47;;;;;;;12.91;48.58;99357.44;4420457;32;20170;-68
2021/12/26 05:22:58;;;;;;;9.82;6.55;;;;;;;13.02;47.87;99351.25;4420599;32;20471;-68
2021/12/26 05:25:24;;;;;;;8.20;5.80;;;;;;;12.98;48.30;99347.81;4421022;32;20037;-68
2021/12/26 05:27:51;;;;;;;9.70;6.05;;;;;;;13.05;48.08;99344.63;4420348;32;20038;-69
2021/12/26 05:30:20;;;;;;;9.05;5.80;;;;;;;13.15;48.29;99354.53;4419722;32;20065;-69
2021/12/26 05:32:46;;;;;;;9.80;6.05;;;;;;;13.21;48.15;99352.56;4421753;32;20044;-69
2021/12/26 05:35:14;;;;;;;8.18;5.50;;;;;;;12.96;48.27;99339.84;4420882;32;20038;-69
2021/12/26 05:37:41;;;;;;;9.40;5.75;;;;;;;13.17;47.82;99344.31;4419631;32;20064;-69
2021/12/26 05:40:08;;;;;;;10.35;6.10;;;;;;;13.03;48.22;99352.78;4423863;32;20518;-70
2021/12/26 05:42:35;;;;;;;9.07;6.37;;;;;;;13.19;48.03;99347.41;4421697;32;20596;-70
2021/12/26 05:45:01;;;;;;;10.23;6.03;;;;;;;13.08;48.27;99344.44;4419846;32;20069;-70
2021/12/26 05:47:27;;;;;;;12.18;6.37;;;;;;;12.94;48.45;99338.75;4416561;32;20038;-70
2021/12/26 05:49:54;;;;;;;10.02;6.37;;;;;;;13.09;48.13;99337.50;4420075;32;20033;-70
2021/12/26 05:52:20;;;;;;;9.75;6.30;;;;;;;13.24;48.08;99337.47;4424237;32;20124;-70
2021/12/26 05:54:46;;;;;;;9.15;5.90;;;;;;;13.15;48.22;99329.09;4423767;32;20030;-68
2021/12/26 05:57:12;;;;;;;9.18;5.93;;;;;;;13.17;48.12;99329.41;4419719;32;20096;-68
2021/12/26 05:59:38;;;;;;;8.50;5.80;;;;;;;13.07;48.08;99325.91;4418661;32;20069;-68
2021/12/26 06:02:04;;;;;;;10.82;6.15;;;;;;;12.99;48.27;99321.94;4418245;32;20856;-68
2021/12/26 06:04:29;;;;;;;9.18;5.97;;;;;;;12.99;48.24;99321.13;4421978;32;20412;-69
2021/12/26 06:06:55;;;;;;;9.80;5.57;;;;;;;13.04;48.32;99320.47;4423541;32;20465;-69
2021/12/26 06:09:21;;;;;;;8.27;5.50;;;;;;;13.11;48.16;99309.56;4422175;32;20450;-69
2021/12/26 06:11:47;;;;;;;7.97;5.72;;;;;;;13.13;48.32;99311.91;4418647;32;20052;-69
2021/12/26 06:14:13;;;;;;;10.00;5.57;;;;;;;13.12;48.33;99313.13;4422702;32;20041;-69
2021/12/26 06:16:38;;;;;;;10.15;5.97;;;;;;;13.04;48.29;99315.59;4419203;32;20185;-69
2021/12/26 06:19:04;;;;;;;9.13;6.00;;;;;;;13.11;48.01;99303.12;4418961;32;20420;-69
2021/12/26 06:21:30;;;;;;;7.68;5.70;;;;;;;13.01;48.15;99308.09;4418492;32;20173;-69
2021/12/26 06:23:56;;;;;;;9.00;6.20;;;;;;;13.08;48.33;99309.75;4422012;32;20081;-69
2021/12/26 06:26:25;;;;;;;11.38;6.22;;;;;;;13.18;48.58;99306.31;4421821;32;20063;-69
2021/12/26 06:28:51;;;;;;;8.93;5.95;;;;;;;13.33;48.04;99311.91;4418865;32;20683;-68
2021/12/26 06:31:17;;;;;;;7.65;5.75;;;;;;;13.17;48.28;99307.59;4419965;32;20029;-68
2021/12/26 06:33:44;;;;;;;7.85;6.18;;;;;;;13.09;48.19;99300.78;4420416;32;20076;-68
2021/12/26 06:36:10;;;;;;;8.75;6.55;;;;;;;13.10;48.21;99307.97;4414963;32;20664;-68
2021/12/26 06:38:37;;;;;;;9.75;6.05;;;;;;;12.90;48.47;99310.72;4419397;32;20122;-67
2021/12/26 06:41:05;;;;;;;7.35;5.90;;;;;;;13.14;48.41;99302.16;4420481;32;20071;-68
2021/12/26 06:43:31;;;;;;;9.85;6.22;;;;;;;13.24;47.88;99303.56;4421548;32;20336;-68
2021/12/26 06:45:57;;;;;;;8.98;6.55;;;;;;;12.97;48.15;99306.72;4420086;32;20023;-69
2021/12/26 06:48:24;;;;;;;10.35;6.07;;;;;;;13.15;48.76;99310.13;4418666;32;20207;-69
2021/12/26 06:50:50;;;;;;;8.70;6.40;;;;;;;13.06;48.69;99312.28;4418889;32;20385;-69
2021/12/26 06:53:17;;;;;;;12.52;7.15;;;;;;;13.20;48.55;99303.75;4420477;32;20069;-69
2021/12/26 06:55:43;;;;;;;9.32;6.47;;;;;;;13.11;48.93;99301.09;4422909;32;20089;-69
2021/12/26 06:58:09;;;;;;;9.65;6.78;;;;;;;13.21;48.72;99296.06;4419743;32;20033;-69
2021/12/26 07:00:35;;;;;;;9.77;6.78;;;;;;;13.17;48.42;99301.94;4422906;32;20240;-69
2021/12/26 07:03:02;;;;;;;10.38;7.10;;;;;;;13.32;48.49;99296.25;4420806;32;20559;-69
2021/12/26 07:05:27;;;;;;;8.50;6.60;;;;;;;13.39;48.31;99296.62;4419431;32;20303;-69
2021/12/26 07:07:53;;;;;;;9.02;6.45;;;;;;;13.27;48.26;99300.56;4420234;32;20061;-69
2021/12/26 07:10:20;;;;;;;9.80;7.00;;;;;;;13.33;47.77;99304.25;4424500;32;20034;-69
2021/12/26 07:12:45;;;;;;;8.90;6.60;;;;;;;13.28;48.10;99302.09;4423660;32;20034;-69
2021/12/26 07:15:13;;;;;;;12.20;8.02;;;;;;;13.35;48.23;99303.75;4426130;32;20068;-69
2021/12/26 07:17:40;;;;;;;10.52;7.37;;;;;;;13.45;48.00;99300.31;4423903;32;20458;-68
2021/12/26 07:20:08;;;;;;;9.68;7.03;;;;;;;13.41;48.41;99291.22;4421469;32;20033;-68
2021/12/26 07:22:34;;;;;;;11.27;7.53;;;;;;;13.50;48.30;99293.16;4422145;32;20111;-68
2021/12/26 07:24:59;;;;;;;11.23;7.00;;;;;;;13.34;48.48;99294.47;4422951;32;20387;-69
2021/12/26 07:27:25;;;;;;;9.75;6.80;;;;;;;13.40;48.45;99295.34;4421708;32;20376;-69
2021/12/26 07:29:51;;;;;;;11.43;6.40;;;;;;;13.49;48.43;99288.78;4423132;32;20238;-69
2021/12/26 07:32:17;;;;;;;9.68;7.05;;;;;;;13.39;48.49;99293.78;4421958;32;20086;-67
2021/12/26 07:34:43;;;;;;;10.10;7.00;;;;;;;13.20;48.67;99286.06;4422197;32;20037;-67
2021/12/26 07:37:09;;;;;;;10.02;7.03;;;;;;;13.45;48.22;99294.66;4424277;32;20064;-68
2021/12/26 07:39:35;;;;;;;10.70;7.28;;;;;;;13.51;48.19;99286.25;4424332;32;20120;-69
2021/12/26 07:42:02;;;;;;;9.50;7.10;;;;;;;13.51;48.22;99286.25;4423665;32;20071;-68
2021/12/26 07:44:28;;;;;;;10.75;7.55;;;;;;;13.51;48.54;99291.87;4422345;32;20096;-68
2021/12/26 07:46:53;;;;;;;9.95;7.05;;;;;;;13.45;48.27;99274.88;4422904;32;20061;-69
2021/12/26 07:49:21;;;;;;;13.23;7.60;;;;;;;13.49;48.46;99292.37;4423232;32;20161;-67
2021/12/26 07:51:48;;;;;;;13.27;7.43;;;;;;;13.66;49.09;99290.53;4420380;32;20025;-69
2021/12/26 07:54:15;;;;;;;13.88;8.07;;;;;;;13.57;49.67;99295.56;4420104;32;20047;-68
2021/12/26 07:56:41;;;;;;;9.88;6.25;;;;;;;13.58;49.16;99295.06;4422820;32;20069;-69
2021/12/26 07:59:07;;;;;;;10.35;6.78;;;;;;;13.34;49.12;99302.97;4424149;32;20056;-69
2021/12/26 08:01:33;;;;;;;9.57;7.18;;;;;;;13.24;49.73;99295.88;4422972;32;20094;-68
2021/12/26 08:04:02;;;;;;;9.82;6.78;;;;;;;13.28;49.71;99296.44;4423358;32;20041;-69
2021/12/26 08:06:29;;;;;;;10.13;6.87;;;;;;;13.13;49.01;99300.59;4423572;32;20459;-69
2021/12/26 08:08:55;;;;;;;9.52;6.37;;;;;;;13.54;49.20;99296.56;4423458;32;20439;-68
2021/12/26 08:11:21;;;;;;;10.88;7.53;;;;;;;13.38;49.59;99295.03;4422099;32;20077;-68
2021/12/26 08:13:47;;;;;;;9.60;6.30;;;;;;;13.51;49.62;99301.16;4420837;32;20095;-69
2021/12/26 08:16:14;;;;;;;9.18;6.60;;;;;;;13.54;49.30;99300.16;4426115;32;20400;-69
2021/12/26 08:18:40;;;;;;;8.50;5.97;;;;;;;13.54;49.12;99310.69;4419630;32;20096;-69
2021/12/26 08:21:06;;;;;;;9.30;6.30;;;;;;;13.61;48.91;99305.41;4421365;32;20120;-68
2021/12/26 08:23:32;;;;;;;9.93;6.28;;;;;;;13.64;49.03;99309.28;4422090;32;20085;-68
2021/12/26 08:25:58;;;;;;;8.43;6.12;;;;;;;13.61;48.83;99305.41;4422498;32;20500;-68
2021/12/26 08:28:24;;;;;;;8.63;5.87;;;;;;;13.72;49.18;99311.19;4424025;32;21259;-67
2021/12/26 08:30:50;;;;;;;9.85;6.25;;;;;;;13.71;48.63;99312.47;4419774;32;20066;-67
2021/12/26 08:33:16;;;;;;;8.55;5.68;;;;;;;13.73;48.68;99317.63;4419593;32;20495;-67
2021/12/26 08:35:44;;;;;;;8.70;5.85;;;;;;;13.74;48.35;99317.13;4423974;32;20688;-67
2021/12/26 08:38:10;;;;;;;7.50;5.45;;;;;;;13.87;48.36;99316.78;4421591;32;20133;-67
2021/12/26 08:40:36;;;;;;;8.35;5.57;;;;;;;13.77;48.26;99324.63;4423760;32;20434;-67
2021/12/26 08:43:02;;;;;;;7.43;5.32;;;;;;;13.71;48.18;99318.13;4423175;32;20030;-67
2021/12/26 08:45:28;;;;;;;7.80;5.35;;;;;;;13.79;47.96;99319.25;4424536;32;20472;-67
2021/12/26 08:47:55;;;;;;;8.52;5.57;;;;;;;13.94;48.28;99317.13;4422388;32;20073;-68
2021/12/26 08:50:25;;;;;;;8.75;5.70;;;;;;;13.98;47.85;99314.09;4420915;32;20120;-68
2021/12/26 08:52:51;;;;;;;8.52;5.72;;;;;;;13.94;48.05;99305.81;4422492;32;20053;-68
2021/12/26 08:55:18;;;;;;;8.43;5.90;;;;;;;13.73;48.31;99314.78;4420040;32;20126;-68
2021/12/26 08:57:43;;;;;;;10.60;6.30;;;;;;;13.87;48.04;99316.78;4423435;32;20109;-68
2021/12/26 09:00:11;;;;;;;8.52;5.93;;;;;;;13.79;48.30;99318.47;4422466;32;20486;-68
2021/12/26 09:02:37;;;;;;;9.40;6.30;;;;;;;14.11;47.85;99311.66;4415773;32;20528;-68
2021/12/26 09:05:03;;;;;;;11.77;6.25;;;;;;;13.84;47.28;99326.25;4422656;32;20077;-68
2021/12/26 09:07:29;;;;;;;11.15;6.20;;;;;;;13.91;47.78;99317.34;4421610;32;20076;-68
2021/12/26 09:09:56;;;;;;;10.30;6.55;;;;;;;13.88;47.86;99327.59;4415950;32;20026;-68
2021/12/26 09:12:22;;;;;;;10.23;6.57;;;;;;;14.07;47.96;99311.91;4424286;32;20029;-68
2021/12/26 09:14:47;;;;;;;11.23;6.87;;;;;;;14.07;47.68;99314.72;4423186;32;20092;-68
2021/12/26 09:17:14;;;;;;;11.98;7.15;;;;;;;14.13;47.47;99316.81;4422165;32;20106;-68
2021/12/26 09:19:39;;;;;;;9.60;6.85;;;;;;;14.11;47.35;99316.56;4420404;32;20100;-68
2021/12/26 09:22:07;;;;;;;13.73;7.93;;;;;;;14.08;47.29;99312.66;4421350;32;20042;-68
2021/12/26 09:24:33;;;;;;;13.32;7.53;;;;;;;14.26;47.25;99312.38;4419023;32;20034;-68
2021/12/26 09:27:00;;;;;;;12.45;6.93;;;;;;;14.16;47.29;99313.00;4423234;32;20053;-70
2021/12/26 09:29:25;;;;;;;13.55;8.63;;;;;;;14.26;47.10;99318.03;4423356;32;20091;-68
2021/12/26 09:31:53;;;;;;;14.82;8.95;;;;;;;14.24;46.96;99322.66;4420901;32;20077;-68
2021/12/26 09:34:20;;;;;;;13.45;8.25;;;;;;;14.30;47.30;99315.00;4421159;32;20042;-68
2021/12/26 09:36:46;;;;;;;12.52;7.90;;;;;;;14.26;47.46;99322.94;4421152;32;20095;-68
2021/12/26 09:39:13;;;;;;;13.20;7.65;;;;;;;14.31;47.34;99319.38;4418915;32;20053;-68
2021/12/26 09:41:39;;;;;;;12.82;8.13;;;;;;;14.35;47.34;99317.09;4418998;32;20089;-68
2021/12/26 09:44:06;;;;;;;14.40;7.82;;;;;;;14.42;47.62;99319.50;4421903;32;20301;-68
2021/12/26 09:46:34;;;;;;;12.77;7.50;;;;;;;14.44;46.98;99317.72;4419437;32;20383;-68
2021/12/26 09:49:00;;;;;;;13.75;8.80;;;;;;;14.45;47.38;99310.00;4420955;32;20092;-69
2021/12/26 09:51:26;;;;;;;13.38;7.85;;;;;;;14.35;47.66;99306.56;4422034;32;20363;-69
2021/12/26 09:53:53;;;;;;;14.65;8.38;;;;;;;14.30;47.62;99317.81;4420402;32;20489;-69
2021/12/26 09:56:19;;;;;;;15.10;7.93;;;;;;;14.38;47.85;99318.94;4420535;32;20092;-69
2021/12/26 09:59:04;;;;;;;14.70;8.10;;;;;;;14.38;46.70;99313.25;4420545;32;20501;-69
2021/12/26 10:01:37;;;;;;;14.93;7.97;;;;;;;14.62;46.80;99323.06;4419800;32;20103;-69
2021/12/26 10:04:16;;;;;;;15.25;8.50;;;;;;;14.22;46.43;99311.78;4423025;32;20034;-69
2021/12/26 10:06:41;;;;;;;14.38;7.18;;;;;;;14.51;47.04;99310.84;4424188;32;21271;-69
2021/12/26 10:09:09;;;;;;;12.95;8.07;;;;;;;14.25;47.65;99308.00;4416036;32;20026;-69
2021/12/26 10:11:42;;;;;;;14.02;8.00;;;;;;;14.41;47.29;99306.59;4422725;32;20061;-69
2021/12/26 10:14:12;;;;;;;15.48;9.48;;;;;;;14.53;47.54;99303.41;4422400;32;20431;-69
2021/12/26 10:16:42;;;;;;;13.40;8.25;;;;;;;14.60;47.19;99302.19;4417681;32;20072;-69
2021/12/26 10:19:08;;;;;;;14.80;9.02;;;;;;;14.54;46.29;99301.34;4421305;32;20055;-69
2021/12/26 10:27:09;;;;;;;12.68;7.82;;;;;;;15.14;45.92;99301.88;3980390;32;15026735;-70
2021/12/26 10:32:18;;;;;;;16.02;8.05;;;;;;;15.07;46.64;99301.56;3979038;32;15025688;-70
2021/12/26 10:34:47;;;;;;;15.43;8.45;;;;;;;15.07;46.64;99301.56;4432616;32;20120;-70
2021/12/26 10:37:21;;;;;;;14.57;8.32;;;;;;;14.79;47.46;99292.06;4431959;32;20470;-70
2021/12/26 10:39:50;;;;;;;13.02;7.95;;;;;;;14.80;46.72;99297.22;4433594;32;20095;-70
2021/12/26 10:42:19;;;;;;;14.13;7.50;;;;;;;14.76;47.26;99301.56;4436056;32;20083;-70
2021/12/26 10:44:51;;;;;;;15.40;8.57;;;;;;;14.92;46.83;99295.25;4435097;32;20124;-70
2021/12/26 10:47:21;;;;;;;15.00;8.68;;;;;;;14.99;46.88;99298.41;4434570;32;20051;-70
2021/12/26 10:49:54;;;;;;;13.20;8.07;;;;;;;15.11;46.64;99291.53;4427884;32;20044;-70
2021/12/26 10:52:31;;;;;;;14.27;8.82;;;;;;;15.16;46.53;99281.53;4431545;32;20467;-70
2021/12/26 10:55:02;;;;;;;14.87;8.15;;;;;;;15.11;46.89;99294.38;4431543;32;20096;-70
2021/12/26 10:57:33;;;;;;;12.70;8.13;;;;;;;15.14;46.74;99286.91;4436153;32;20022;-70
2021/12/26 11:00:06;;;;;;;14.75;8.15;;;;;;;15.15;47.03;99280.75;4432091;32;20104;-68
2021/12/26 11:02:34;;;;;;;13.65;8.50;;;;;;;15.34;46.36;99281.91;4429912;32;20311;-68
2021/12/26 11:05:05;;;;;;;14.48;8.50;;;;;;;15.09;46.67;99277.09;4435220;32;20049;-69
2021/12/26 11:07:57;;;;;;;17.05;8.77;;;;;;;15.31;46.78;99270.81;4433589;32;20830;-69
2021/12/26 11:10:31;;;;;;;15.60;8.18;;;;;;;15.46;46.27;99268.59;4433990;32;20094;-68
2021/12/26 11:13:00;;;;;;;12.20;7.72;;;;;;;15.44;45.94;99265.50;4434816;32;20029;-68
2021/12/26 11:15:29;;;;;;;14.85;7.53;;;;;;;15.33;46.40;99260.50;4434750;32;20084;-68
2021/12/26 11:18:00;;;;;;;14.02;8.52;;;;;;;15.33;46.38;99251.22;4430514;32;20101;-68
2021/12/26 11:20:30;;;;;;;14.32;8.60;;;;;;;15.23;46.41;99249.88;4432943;32;20073;-68
2021/12/26 11:22:57;;;;;;;12.35;7.43;;;;;;;15.22;46.60;99251.19;4434257;32;20426;-68
2021/12/26 11:25:24;;;;;;;13.20;6.93;;;;;;;14.77;46.46;99250.09;4435572;32;20045;-68
2021/12/26 11:27:51;;;;;;;13.40;7.60;;;;;;;14.95;46.64;99238.37;4434759;32;20059;-68
2021/12/26 11:30:18;;;;;;;13.57;7.62;;;;;;;14.91;47.31;99243.47;4428368;32;20093;-68
2021/12/26 11:32:44;;;;;;;16.23;8.25;;;;;;;15.14;46.97;99238.75;4433122;32;20034;-68
2021/12/26 11:35:10;;;;;;;18.73;8.55;;;;;;;15.14;46.67;99235.91;4435887;32;20065;-68
2021/12/26 11:37:38;;;;;;;14.57;8.18;;;;;;;15.20;46.88;99246.00;4432042;32;20041;-68
2021/12/26 11:40:08;;;;;;;15.95;8.90;;;;;;;15.31;46.78;99237.56;4432620;32;20502;-68
2021/12/26 11:53:54;;;;;;;15.00;7.55;;;;;;;15.05;45.27;99236.91;3995047;31;15015723;-68
2021/12/26 11:56:34;;;;;;;15.07;7.43;;;;;;;15.04;46.79;99237.41;4434629;32;20037;-68